Pagrindinis puslapis
METAR-TAF:

METAR-TAF

Oro uostai :

Ajakučas, Peru

platuma: 13-08S, ilguma: 074-13W, Aukštis: 2740 m

Dabartinis oras

Ataskaita buvo paskelbta 15 minutes, ne 15:00 UTC
Vėjas 3 kt nuo kintamojo kryptimis
Temperatūra 17°C
Drėgmė 39%
Slėgis 1032 hPa
Matomumas 10 km arba daugiau
Mažai debesys ne aukštis 3000 ft

METAR: SPHO 251500Z VRB03KT 9999 FEW030 17/03 Q1032 RMK BIRD HAZARD RWY 02/20 PP000

Laikas: 10:15 (15:15 UTC)

Prognozė

Ataskaita buvo paskelbta 4 valandos ir 15 minutes, ne 11:00 UTC
Prognozė galioja nuo 25 metu 12 UTC su 26 metu 12 UTC
Vėjas 5 kt nuo kintamojo kryptimis
Matomumas 10 km arba daugiau
nėra debesų žemiau 1500 m ir nėra kamuolinių lietaus debesų
Laikinai
nuo 14 metu 18 UTC su 14 metu 20 UTC
Mažai debesys ne aukštis 2000 ft
Išsisklaidę debesys ne aukštis 4000 ft, aukštai iškilę kamuoliniai debesys.

TAF: SPHO 251100Z 2512/2612 VRB05KT CAVOK TX24/2519Z TN13/2611Z TEMPO 1418/1420 FEW020 SCT040TCU

Orai ataskaitas ir orų prognozės (METAR, TAF).

turimą stotys yra geltonos ir raudonos taškus žemėlapyje.

Perkelti pele per norėdami pamatyti stoties vardą.

Tada spustelėkite, norėdami matyti oro stebėjimo ir prognozės.

Norėdami pakeisti žemėlapį: spustelėkite ant žalios mygtukų su juodo kryžiaus žemyn,; žalią mygtuką su brūkšneliu, jei norite nutolinti; arba žalių rodyklių gretimoms žemėlapius.


METAR-TAF: